QFA629 WMKK-VAAH
Flight info
| Callsign | QFA629 |
|---|---|
| Flight time | N/A |
| Altitude | 36000 |
| Route | IBUKU1D IBUKU Y504 GUNIP N571 VAMPI Y338 LEKIR L510 AGEGA N877 NNP N895 BODAR BODAR1A |
| Aircraft | B738/M-SDE2E3FGHIRWXY/LB1 |
Departure
| Time | 2026-05-06 05:41 |
|---|---|
| Airport | Kuala Lumpur International Airport (WMKK) |
Arrival
| Time | N/A |
|---|---|
| Airport | Sardar Vallabh Patel International Airport (VAAH) |
| Time | Latitude | Longitude | Altitude | Speed | Heading |
|---|---|---|---|---|---|
| 2026-05-06 05:26 | 2.75425 | 101.70881 | 69 ft | 0 kts | 323° |
| 2026-05-06 05:32 | 2.75421 | 101.70884 | 69 ft | 2 kts | 322° |
| 2026-05-06 05:32 | 2.75406 | 101.70896 | 65 ft | 3 kts | 321° |
| 2026-05-06 05:33 | 2.75390 | 101.70909 | 67 ft | 3 kts | 321° |
| 2026-05-06 05:33 | 2.75374 | 101.70921 | 60 ft | 3 kts | 328° |
| 2026-05-06 05:33 | 2.75357 | 101.70929 | 65 ft | 3 kts | 1° |
| 2026-05-06 05:33 | 2.75348 | 101.70927 | 67 ft | 1 kts | 53° |
| 2026-05-06 05:34 | 2.75347 | 101.70926 | 67 ft | 1 kts | 54° |
| 2026-05-06 05:36 | 2.75359 | 101.70942 | 63 ft | 8 kts | 54° |
| 2026-05-06 05:36 | 2.75405 | 101.71009 | 70 ft | 15 kts | 56° |
| 2026-05-06 05:36 | 2.75473 | 101.71111 | 66 ft | 20 kts | 55° |
| 2026-05-06 05:36 | 2.75559 | 101.71238 | 67 ft | 23 kts | 56° |
| 2026-05-06 05:37 | 2.75649 | 101.71365 | 72 ft | 22 kts | 64° |
| 2026-05-06 05:37 | 2.75580 | 101.71484 | 70 ft | 22 kts | 142° |
| 2026-05-06 05:37 | 2.75455 | 101.71565 | 63 ft | 21 kts | 145° |
| 2026-05-06 05:37 | 2.75337 | 101.71647 | 73 ft | 20 kts | 145° |
| 2026-05-06 05:38 | 2.75221 | 101.71723 | 74 ft | 20 kts | 146° |
| 2026-05-06 05:38 | 2.75108 | 101.71798 | 72 ft | 19 kts | 146° |
| 2026-05-06 05:38 | 2.74999 | 101.71871 | 73 ft | 19 kts | 146° |
| 2026-05-06 05:38 | 2.74895 | 101.71941 | 76 ft | 18 kts | 145° |
| 2026-05-06 05:39 | 2.74799 | 101.72007 | 73 ft | 15 kts | 146° |
| 2026-05-06 05:39 | 2.74776 | 101.72023 | 71 ft | 0 kts | 144° |
| 2026-05-06 05:39 | 2.74757 | 101.72062 | 77 ft | 12 kts | 91° |
| 2026-05-06 05:39 | 2.74779 | 101.72112 | 76 ft | 9 kts | 60° |
| 2026-05-06 05:40 | 2.74833 | 101.72193 | 75 ft | 12 kts | 16° |
| 2026-05-06 05:40 | 2.74865 | 101.72183 | 72 ft | 3 kts | 327° |
| 2026-05-06 05:40 | 2.75078 | 101.72040 | 72 ft | 72 kts | 326° |
| 2026-05-06 05:40 | 2.75671 | 101.71645 | 72 ft | 132 kts | 326° |
| 2026-05-06 05:41 | 2.76572 | 101.71029 | 158 ft | 174 kts | 325° |
| 2026-05-06 05:41 | 2.77595 | 101.70322 | 789 ft | 179 kts | 324° |
| 2026-05-06 05:41 | 2.78648 | 101.69619 | 1507 ft | 187 kts | 326° |
| 2026-05-06 05:41 | 2.79800 | 101.68904 | 1990 ft | 206 kts | 330° |
| 2026-05-06 05:42 | 2.81239 | 101.68379 | 2220 ft | 231 kts | 342° |
| 2026-05-06 05:42 | 2.82805 | 101.67865 | 2617 ft | 243 kts | 341° |
| 2026-05-06 05:42 | 2.84412 | 101.67307 | 3229 ft | 247 kts | 341° |
| 2026-05-06 05:42 | 2.86105 | 101.66708 | 3607 ft | 266 kts | 341° |
| 2026-05-06 05:43 | 2.87875 | 101.66072 | 4283 ft | 271 kts | 341° |
| 2026-05-06 05:43 | 2.89650 | 101.65433 | 5070 ft | 273 kts | 341° |
| 2026-05-06 05:43 | 2.91448 | 101.64784 | 5787 ft | 276 kts | 341° |
| 2026-05-06 05:43 | 2.93258 | 101.64153 | 6463 ft | 280 kts | 342° |
| 2026-05-06 05:44 | 2.95118 | 101.63504 | 7150 ft | 284 kts | 338° |
| 2026-05-06 05:44 | 2.96748 | 101.62373 | 7787 ft | 289 kts | 312° |
| 2026-05-06 05:44 | 2.98007 | 101.60783 | 8457 ft | 293 kts | 307° |
| 2026-05-06 05:44 | 2.99199 | 101.59140 | 9088 ft | 297 kts | 306° |
| 2026-05-06 05:45 | 3.00408 | 101.57452 | 9792 ft | 299 kts | 306° |
| 2026-05-06 05:45 | 3.01635 | 101.55746 | 10345 ft | 305 kts | 306° |
| 2026-05-06 05:45 | 3.02924 | 101.53965 | 10515 ft | 326 kts | 306° |
| 2026-05-06 05:45 | 3.04304 | 101.52068 | 10662 ft | 346 kts | 307° |
| 2026-05-06 05:46 | 3.05764 | 101.50068 | 10801 ft | 365 kts | 307° |
| 2026-05-06 05:46 | 3.07285 | 101.47991 | 10908 ft | 383 kts | 307° |
| 2026-05-06 05:46 | 3.08890 | 101.45800 | 11107 ft | 395 kts | 307° |
| 2026-05-06 05:46 | 3.10533 | 101.43558 | 11463 ft | 402 kts | 307° |
| 2026-05-06 05:47 | 3.12188 | 101.41299 | 12020 ft | 403 kts | 307° |
| 2026-05-06 05:47 | 3.13852 | 101.39029 | 12446 ft | 407 kts | 307° |
| 2026-05-06 05:47 | 3.15538 | 101.36731 | 12886 ft | 410 kts | 307° |
| 2026-05-06 05:47 | 3.17216 | 101.34446 | 13332 ft | 413 kts | 307° |
| 2026-05-06 05:48 | 3.18931 | 101.32128 | 13761 ft | 416 kts | 307° |
| 2026-05-06 05:48 | 3.20670 | 101.29786 | 14151 ft | 419 kts | 307° |
| 2026-05-06 05:48 | 3.22416 | 101.27437 | 14537 ft | 421 kts | 307° |
| 2026-05-06 05:48 | 3.24154 | 101.25098 | 14930 ft | 423 kts | 307° |
| 2026-05-06 05:49 | 3.25923 | 101.22715 | 15305 ft | 425 kts | 307° |
| 2026-05-06 05:49 | 3.27695 | 101.20328 | 15671 ft | 428 kts | 307° |
| 2026-05-06 05:49 | 3.29472 | 101.17931 | 16022 ft | 431 kts | 307° |
| 2026-05-06 05:49 | 3.31262 | 101.15517 | 16372 ft | 433 kts | 307° |
| 2026-05-06 05:50 | 3.33045 | 101.13111 | 16712 ft | 435 kts | 307° |
| 2026-05-06 05:50 | 3.34246 | 101.11491 | 16928 ft | 437 kts | 307° |
| 2026-05-06 05:50 | 3.36074 | 101.09024 | 17258 ft | 440 kts | 307° |
| 2026-05-06 05:50 | 3.38502 | 101.05748 | 17724 ft | 442 kts | 307° |
| 2026-05-06 05:51 | 3.39725 | 101.04097 | 17929 ft | 444 kts | 307° |
| 2026-05-06 05:51 | 3.42197 | 101.00761 | 18313 ft | 447 kts | 307° |
| 2026-05-06 05:51 | 3.43425 | 100.99103 | 18492 ft | 448 kts | 307° |
| 2026-05-06 05:51 | 3.45290 | 100.96587 | 18770 ft | 450 kts | 307° |
| 2026-05-06 05:52 | 3.47161 | 100.94061 | 19045 ft | 451 kts | 307° |
| 2026-05-06 05:52 | 3.49034 | 100.91533 | 19309 ft | 453 kts | 307° |
| 2026-05-06 05:52 | 3.50898 | 100.89015 | 19560 ft | 455 kts | 307° |
| 2026-05-06 05:52 | 3.52790 | 100.86460 | 19816 ft | 457 kts | 307° |
| 2026-05-06 05:53 | 3.54692 | 100.83892 | 20077 ft | 458 kts | 307° |
| 2026-05-06 05:53 | 3.56573 | 100.81351 | 20322 ft | 460 kts | 307° |
| 2026-05-06 05:53 | 3.58485 | 100.78769 | 20561 ft | 461 kts | 307° |
| 2026-05-06 05:53 | 3.60398 | 100.76177 | 20797 ft | 463 kts | 307° |
| 2026-05-06 05:54 | 3.62305 | 100.73569 | 21023 ft | 465 kts | 307° |
| 2026-05-06 05:54 | 3.64213 | 100.70944 | 21260 ft | 466 kts | 307° |
| 2026-05-06 05:54 | 3.66122 | 100.68316 | 21480 ft | 468 kts | 307° |
| 2026-05-06 05:54 | 3.68018 | 100.65704 | 21690 ft | 469 kts | 307° |
| 2026-05-06 05:55 | 3.69945 | 100.63052 | 21903 ft | 471 kts | 307° |
| 2026-05-06 05:55 | 3.71887 | 100.60380 | 22118 ft | 472 kts | 307° |
| 2026-05-06 05:55 | 3.73805 | 100.57743 | 22309 ft | 474 kts | 307° |
| 2026-05-06 05:55 | 3.75756 | 100.55061 | 22499 ft | 475 kts | 307° |
| 2026-05-06 05:56 | 3.77715 | 100.52368 | 22697 ft | 477 kts | 307° |
| 2026-05-06 05:56 | 3.79652 | 100.49705 | 22889 ft | 478 kts | 307° |
| 2026-05-06 05:56 | 3.81609 | 100.47015 | 23071 ft | 479 kts | 307° |
| 2026-05-06 05:56 | 3.83579 | 100.44306 | 23251 ft | 481 kts | 307° |
| 2026-05-06 05:57 | 3.85556 | 100.41589 | 23431 ft | 482 kts | 307° |
| 2026-05-06 05:57 | 3.87514 | 100.38896 | 23578 ft | 483 kts | 307° |
| 2026-05-06 05:57 | 3.89499 | 100.36165 | 23735 ft | 484 kts | 307° |
| 2026-05-06 05:57 | 3.91487 | 100.33432 | 23890 ft | 484 kts | 307° |
| 2026-05-06 05:58 | 3.93472 | 100.30701 | 24039 ft | 485 kts | 307° |
| 2026-05-06 05:58 | 3.95462 | 100.27963 | 24175 ft | 486 kts | 306° |
| 2026-05-06 05:58 | 3.97455 | 100.25221 | 24313 ft | 487 kts | 306° |
| 2026-05-06 05:58 | 3.99426 | 100.22509 | 24451 ft | 488 kts | 306° |
| 2026-05-06 05:59 | 4.01425 | 100.19758 | 24595 ft | 488 kts | 306° |
| 2026-05-06 05:59 | 4.03427 | 100.17003 | 24726 ft | 489 kts | 306° |
| 2026-05-06 05:59 | 4.05444 | 100.14227 | 24859 ft | 490 kts | 306° |
| 2026-05-06 05:59 | 4.07453 | 100.11462 | 24986 ft | 491 kts | 306° |
| 2026-05-06 06:00 | 4.09437 | 100.08731 | 25107 ft | 492 kts | 306° |
| 2026-05-06 06:00 | 4.11457 | 100.05949 | 25234 ft | 492 kts | 306° |
| 2026-05-06 06:00 | 4.13474 | 100.03172 | 25362 ft | 493 kts | 306° |
| 2026-05-06 06:00 | 4.15495 | 100.00389 | 25490 ft | 494 kts | 306° |
| 2026-05-06 06:01 | 4.17522 | 99.97597 | 25605 ft | 494 kts | 306° |
| 2026-05-06 06:01 | 4.19546 | 99.94810 | 25711 ft | 495 kts | 306° |
| 2026-05-06 06:01 | 4.21554 | 99.92044 | 25828 ft | 496 kts | 306° |
| 2026-05-06 06:01 | 4.23590 | 99.89240 | 25939 ft | 497 kts | 306° |
| 2026-05-06 06:02 | 4.25625 | 99.86435 | 26048 ft | 497 kts | 306° |
| 2026-05-06 06:02 | 4.27675 | 99.83610 | 26157 ft | 498 kts | 306° |
| 2026-05-06 06:02 | 4.29692 | 99.80831 | 26259 ft | 499 kts | 306° |
| 2026-05-06 06:02 | 4.31737 | 99.78013 | 26361 ft | 499 kts | 306° |
| 2026-05-06 06:03 | 4.33776 | 99.75202 | 26506 ft | 499 kts | 306° |
| 2026-05-06 06:03 | 4.35817 | 99.72389 | 26684 ft | 498 kts | 306° |
| 2026-05-06 06:03 | 4.37856 | 99.69578 | 26848 ft | 497 kts | 306° |
| 2026-05-06 06:03 | 4.39893 | 99.66768 | 27000 ft | 497 kts | 306° |
| 2026-05-06 06:04 | 4.41926 | 99.63964 | 27147 ft | 497 kts | 306° |
| 2026-05-06 06:04 | 4.43944 | 99.61181 | 27309 ft | 496 kts | 306° |
| 2026-05-06 06:04 | 4.45977 | 99.58377 | 27485 ft | 496 kts | 306° |
| 2026-05-06 06:04 | 4.47986 | 99.55605 | 27650 ft | 495 kts | 306° |
| 2026-05-06 06:05 | 4.50033 | 99.52808 | 27810 ft | 495 kts | 308° |
| 2026-05-06 06:05 | 4.52219 | 99.50138 | 27974 ft | 495 kts | 310° |
| 2026-05-06 06:05 | 4.54475 | 99.47532 | 28165 ft | 494 kts | 311° |
| 2026-05-06 06:05 | 4.56760 | 99.44951 | 28349 ft | 494 kts | 311° |
| 2026-05-06 06:06 | 4.59048 | 99.42378 | 28505 ft | 494 kts | 311° |
| 2026-05-06 06:06 | 4.61308 | 99.39826 | 28662 ft | 494 kts | 311° |
| 2026-05-06 06:06 | 4.63590 | 99.37232 | 28858 ft | 493 kts | 311° |
| 2026-05-06 06:06 | 4.65831 | 99.34669 | 29053 ft | 493 kts | 311° |
| 2026-05-06 06:07 | 4.68086 | 99.32080 | 29225 ft | 492 kts | 311° |
| 2026-05-06 06:07 | 4.70336 | 99.29490 | 29404 ft | 492 kts | 310° |
| 2026-05-06 06:07 | 4.72587 | 99.26896 | 29582 ft | 492 kts | 310° |
| 2026-05-06 06:07 | 4.74851 | 99.24287 | 29766 ft | 492 kts | 310° |
| 2026-05-06 06:08 | 4.77074 | 99.21725 | 29958 ft | 491 kts | 310° |
| 2026-05-06 06:08 | 4.79318 | 99.19140 | 30144 ft | 490 kts | 310° |
| 2026-05-06 06:08 | 4.81560 | 99.16557 | 30323 ft | 490 kts | 310° |
| 2026-05-06 06:08 | 4.83803 | 99.13974 | 30491 ft | 489 kts | 310° |
| 2026-05-06 06:09 | 4.86039 | 99.11398 | 30677 ft | 489 kts | 310° |
| 2026-05-06 06:09 | 4.88241 | 99.08861 | 30843 ft | 488 kts | 311° |
| 2026-05-06 06:09 | 4.90487 | 99.06274 | 31026 ft | 488 kts | 311° |
| 2026-05-06 06:09 | 4.92716 | 99.03706 | 31200 ft | 487 kts | 311° |
| 2026-05-06 06:10 | 4.94937 | 99.01146 | 31370 ft | 487 kts | 311° |
| 2026-05-06 06:10 | 4.97134 | 98.98614 | 31538 ft | 487 kts | 311° |
| 2026-05-06 06:10 | 4.99358 | 98.96050 | 31711 ft | 486 kts | 311° |
| 2026-05-06 06:10 | 5.01585 | 98.93482 | 31888 ft | 486 kts | 311° |
| 2026-05-06 06:11 | 5.03806 | 98.90922 | 32060 ft | 486 kts | 311° |
| 2026-05-06 06:11 | 5.06027 | 98.88361 | 32254 ft | 485 kts | 311° |
| 2026-05-06 06:11 | 5.08240 | 98.85810 | 32445 ft | 484 kts | 311° |
| 2026-05-06 06:11 | 5.10422 | 98.83292 | 32620 ft | 484 kts | 311° |
| 2026-05-06 06:12 | 5.12639 | 98.80735 | 32797 ft | 483 kts | 311° |
| 2026-05-06 06:12 | 5.14823 | 98.78215 | 32997 ft | 482 kts | 311° |
| 2026-05-06 06:12 | 5.17025 | 98.75675 | 33192 ft | 482 kts | 311° |
| 2026-05-06 06:12 | 5.19226 | 98.73135 | 33350 ft | 482 kts | 311° |
| 2026-05-06 06:13 | 5.21427 | 98.70596 | 33523 ft | 482 kts | 311° |
| 2026-05-06 06:13 | 5.23611 | 98.68075 | 33722 ft | 481 kts | 311° |
| 2026-05-06 06:13 | 5.25807 | 98.65539 | 33884 ft | 481 kts | 311° |
| 2026-05-06 06:13 | 5.28010 | 98.62997 | 34027 ft | 481 kts | 311° |
| 2026-05-06 06:14 | 5.30205 | 98.60463 | 34168 ft | 480 kts | 311° |
| 2026-05-06 06:14 | 5.32406 | 98.57921 | 34338 ft | 480 kts | 311° |
| 2026-05-06 06:14 | 5.34572 | 98.55419 | 34509 ft | 479 kts | 311° |
| 2026-05-06 06:14 | 5.36767 | 98.52885 | 34666 ft | 479 kts | 311° |
| 2026-05-06 06:15 | 5.38954 | 98.50359 | 34805 ft | 479 kts | 311° |
| 2026-05-06 06:15 | 5.41119 | 98.47858 | 34965 ft | 478 kts | 311° |
| 2026-05-06 06:15 | 5.43297 | 98.45341 | 35123 ft | 478 kts | 311° |
| 2026-05-06 06:15 | 5.45477 | 98.42822 | 35268 ft | 478 kts | 311° |
| 2026-05-06 06:16 | 5.47665 | 98.40294 | 35413 ft | 477 kts | 311° |
| 2026-05-06 06:16 | 5.49848 | 98.37771 | 35593 ft | 476 kts | 311° |
| 2026-05-06 06:16 | 5.52007 | 98.35275 | 35773 ft | 475 kts | 311° |
| 2026-05-06 06:16 | 5.54156 | 98.32790 | 35850 ft | 475 kts | 311° |
| 2026-05-06 06:17 | 5.58519 | 98.27745 | 35858 ft | 477 kts | 311° |
| 2026-05-06 06:17 | 5.62864 | 98.22720 | 35864 ft | 475 kts | 311° |
| 2026-05-06 06:18 | 5.67170 | 98.17738 | 35857 ft | 473 kts | 311° |
| 2026-05-06 06:18 | 5.71491 | 98.12738 | 35860 ft | 472 kts | 311° |
| 2026-05-06 06:19 | 5.75782 | 98.07772 | 35860 ft | 471 kts | 311° |
| 2026-05-06 06:19 | 5.80086 | 98.02789 | 35860 ft | 471 kts | 311° |
| 2026-05-06 06:20 | 5.84363 | 97.97835 | 35834 ft | 472 kts | 311° |
| 2026-05-06 06:20 | 5.88671 | 97.92845 | 35853 ft | 475 kts | 311° |
| 2026-05-06 06:21 | 5.93030 | 97.87795 | 35866 ft | 478 kts | 311° |
| 2026-05-06 06:21 | 5.97370 | 97.82766 | 35862 ft | 479 kts | 311° |
| 2026-05-06 06:22 | 6.01749 | 97.77688 | 35855 ft | 480 kts | 311° |
| 2026-05-06 06:22 | 6.06104 | 97.72637 | 35855 ft | 479 kts | 311° |
| 2026-05-06 06:23 | 6.10467 | 97.67576 | 35857 ft | 478 kts | 311° |
| 2026-05-06 06:23 | 6.14814 | 97.62532 | 35855 ft | 476 kts | 311° |
| 2026-05-06 06:24 | 6.19413 | 97.57770 | 35851 ft | 473 kts | 323° |
| 2026-05-06 06:24 | 6.24887 | 97.54139 | 35847 ft | 471 kts | 329° |
| 2026-05-06 06:25 | 6.30252 | 97.50411 | 35851 ft | 471 kts | 317° |
| 2026-05-06 06:26 | 6.36356 | 97.42720 | 35849 ft | 471 kts | 307° |
| 2026-05-06 06:26 | 6.40189 | 97.37429 | 35856 ft | 471 kts | 307° |
| 2026-05-06 06:27 | 6.44092 | 97.32109 | 35858 ft | 471 kts | 307° |
| 2026-05-06 06:27 | 6.48002 | 97.26826 | 35853 ft | 472 kts | 307° |
| 2026-05-06 06:28 | 6.51945 | 97.21509 | 35856 ft | 473 kts | 307° |
| 2026-05-06 06:28 | 6.55866 | 97.16220 | 35858 ft | 474 kts | 307° |
| 2026-05-06 06:29 | 6.59808 | 97.10900 | 35852 ft | 474 kts | 307° |
| 2026-05-06 06:29 | 6.63735 | 97.05596 | 35854 ft | 475 kts | 307° |
| 2026-05-06 06:30 | 6.67698 | 97.00243 | 35850 ft | 476 kts | 307° |
| 2026-05-06 06:30 | 6.71654 | 96.94897 | 35853 ft | 477 kts | 307° |
| 2026-05-06 06:31 | 6.75607 | 96.89554 | 35854 ft | 477 kts | 307° |
| 2026-05-06 06:31 | 6.79580 | 96.84182 | 35849 ft | 478 kts | 307° |
| 2026-05-06 06:32 | 6.83548 | 96.78814 | 35854 ft | 478 kts | 307° |
| 2026-05-06 06:32 | 6.87506 | 96.73459 | 35853 ft | 478 kts | 307° |
| 2026-05-06 06:33 | 6.91487 | 96.68071 | 35847 ft | 478 kts | 307° |
| 2026-05-06 06:33 | 6.95440 | 96.62719 | 35847 ft | 478 kts | 307° |
| 2026-05-06 06:34 | 6.99415 | 96.57336 | 35853 ft | 478 kts | 307° |
| 2026-05-06 06:34 | 7.03367 | 96.51982 | 35850 ft | 478 kts | 307° |
| 2026-05-06 06:35 | 7.07323 | 96.46621 | 35848 ft | 478 kts | 307° |
| 2026-05-06 06:35 | 7.11298 | 96.41232 | 35845 ft | 478 kts | 307° |